Goodspring, Tennessee
Current Conditions -  °F | °C
As of 5:35 PM on Saturday 22 Nov 2014 (Local Time) from KMRC Reporting Station
Scattered Clouds Scattered Clouds  
Wind Chill: 59°   Ceiling: Unl
Heat Index: 59°   Visibility: 10mi
Dew Point: 43°   Wind: 6mph
Humidity: 55%   Direction: 130°SE
Pressure: 30.1"   Gusts: NA
Location:  35.14°N, 87.1°W
Report Text: KMRC 222335Z AUTO 13005KT 10SM SCT100 15/06 A3010 RMK
Loading
Personal Weather Stations






























Interactive Weather Map New forecast layout! Learn more

10-Day Weather Forecast

Advertisements
Track Severe Weather on mobile